sensor_id;sensor_type;location;lat;lon;timestamp;temperature;humidity
43647;DHT22;56152;49.996;18.980;2023-04-15T00:01:52;9.00;86.50
43647;DHT22;56152;49.996;18.980;2023-04-15T00:06:54;8.90;86.70
43647;DHT22;56152;49.996;18.980;2023-04-15T00:11:59;8.80;86.80
43647;DHT22;56152;49.996;18.980;2023-04-15T00:17:01;8.70;87.20
43647;DHT22;56152;49.996;18.980;2023-04-15T00:22:06;8.60;87.40
43647;DHT22;56152;49.996;18.980;2023-04-15T00:27:12;8.50;87.90
43647;DHT22;56152;49.996;18.980;2023-04-15T00:32:15;8.30;88.30
43647;DHT22;56152;49.996;18.980;2023-04-15T00:37:17;8.20;88.60
43647;DHT22;56152;49.996;18.980;2023-04-15T00:42:22;8.10;88.90
43647;DHT22;56152;49.996;18.980;2023-04-15T00:47:26;8.00;89.10
43647;DHT22;56152;49.996;18.980;2023-04-15T00:52:30;8.00;89.10
43647;DHT22;56152;49.996;18.980;2023-04-15T00:57:34;8.00;89.10
43647;DHT22;56152;49.996;18.980;2023-04-15T01:02:37;7.90;89.00
43647;DHT22;56152;49.996;18.980;2023-04-15T01:07:39;7.90;89.00
43647;DHT22;56152;49.996;18.980;2023-04-15T01:12:44;7.90;89.00
43647;DHT22;56152;49.996;18.980;2023-04-15T01:17:48;7.90;89.00
43647;DHT22;56152;49.996;18.980;2023-04-15T01:22:50;7.90;89.00
43647;DHT22;56152;49.996;18.980;2023-04-15T01:27:54;7.80;89.10
43647;DHT22;56152;49.996;18.980;2023-04-15T01:32:56;7.60;89.30
43647;DHT22;56152;49.996;18.980;2023-04-15T01:38:04;7.60;89.60
43647;DHT22;56152;49.996;18.980;2023-04-15T01:43:08;7.50;89.60
43647;DHT22;56152;49.996;18.980;2023-04-15T01:48:10;7.50;89.60
43647;DHT22;56152;49.996;18.980;2023-04-15T01:53:12;7.50;89.50
43647;DHT22;56152;49.996;18.980;2023-04-15T01:58:19;7.40;89.30
43647;DHT22;56152;49.996;18.980;2023-04-15T02:03:23;7.50;89.10
43647;DHT22;56152;49.996;18.980;2023-04-15T02:08:25;7.40;88.80
43647;DHT22;56152;49.996;18.980;2023-04-15T02:13:30;7.30;88.60
43647;DHT22;56152;49.996;18.980;2023-04-15T02:18:32;7.10;89.00
43647;DHT22;56152;49.996;18.980;2023-04-15T02:23:34;6.90;89.40
43647;DHT22;56152;49.996;18.980;2023-04-15T02:28:38;6.80;90.00
43647;DHT22;56152;49.996;18.980;2023-04-15T02:33:41;6.70;90.10
43647;DHT22;56152;49.996;18.980;2023-04-15T02:38:42;6.60;90.20
43647;DHT22;56152;49.996;18.980;2023-04-15T02:43:46;6.50;90.30
43647;DHT22;56152;49.996;18.980;2023-04-15T02:48:48;6.40;90.40
43647;DHT22;56152;49.996;18.980;2023-04-15T02:53:50;6.40;90.50
43647;DHT22;56152;49.996;18.980;2023-04-15T02:58:57;6.40;90.60
43647;DHT22;56152;49.996;18.980;2023-04-15T03:03:59;6.30;90.60
43647;DHT22;56152;49.996;18.980;2023-04-15T03:09:01;6.30;90.70
43647;DHT22;56152;49.996;18.980;2023-04-15T03:14:06;6.10;90.70
43647;DHT22;56152;49.996;18.980;2023-04-15T03:19:08;6.00;90.90
43647;DHT22;56152;49.996;18.980;2023-04-15T03:24:09;5.90;90.90
43647;DHT22;56152;49.996;18.980;2023-04-15T03:29:13;5.90;91.00
43647;DHT22;56152;49.996;18.980;2023-04-15T03:34:15;5.90;91.10
43647;DHT22;56152;49.996;18.980;2023-04-15T03:39:22;5.80;91.20
43647;DHT22;56152;49.996;18.980;2023-04-15T03:44:26;5.80;91.20
43647;DHT22;56152;49.996;18.980;2023-04-15T03:49:28;5.70;91.30
43647;DHT22;56152;49.996;18.980;2023-04-15T03:54:30;5.70;91.30
43647;DHT22;56152;49.996;18.980;2023-04-15T03:59:37;5.60;91.40
43647;DHT22;56152;49.996;18.980;2023-04-15T04:04:39;5.50;91.50
43647;DHT22;56152;49.996;18.980;2023-04-15T04:09:41;5.50;91.50
43647;DHT22;56152;49.996;18.980;2023-04-15T04:14:44;5.40;91.60
43647;DHT22;56152;49.996;18.980;2023-04-15T04:19:46;5.50;91.60
43647;DHT22;56152;49.996;18.980;2023-04-15T04:24:48;5.60;91.50
43647;DHT22;56152;49.996;18.980;2023-04-15T04:29:53;5.80;91.50
43647;DHT22;56152;49.996;18.980;2023-04-15T04:34:55;5.90;91.40
43647;DHT22;56152;49.996;18.980;2023-04-15T04:39:57;6.00;91.30
43647;DHT22;56152;49.996;18.980;2023-04-15T04:45:00;6.00;91.30
43647;DHT22;56152;49.996;18.980;2023-04-15T04:50:06;6.00;91.40
43647;DHT22;56152;49.996;18.980;2023-04-15T04:55:08;6.10;91.50
43647;DHT22;56152;49.996;18.980;2023-04-15T05:00:13;6.10;91.50
43647;DHT22;56152;49.996;18.980;2023-04-15T05:05:15;6.10;91.30
43647;DHT22;56152;49.996;18.980;2023-04-15T05:10:17;6.10;91.40
43647;DHT22;56152;49.996;18.980;2023-04-15T05:15:24;6.20;91.40
43647;DHT22;56152;49.996;18.980;2023-04-15T05:20:26;6.20;91.50
43647;DHT22;56152;49.996;18.980;2023-04-15T05:25:28;6.30;91.50
43647;DHT22;56152;49.996;18.980;2023-04-15T05:30:32;6.70;91.50
43647;DHT22;56152;49.996;18.980;2023-04-15T05:35:34;7.30;91.20
43647;DHT22;56152;49.996;18.980;2023-04-15T05:40:36;7.90;90.80
43647;DHT22;56152;49.996;18.980;2023-04-15T05:45:41;8.40;90.40
43647;DHT22;56152;49.996;18.980;2023-04-15T05:50:43;9.00;90.20
43647;DHT22;56152;49.996;18.980;2023-04-15T05:55:46;9.50;88.90
43647;DHT22;56152;49.996;18.980;2023-04-15T06:00:51;9.90;88.00
43647;DHT22;56152;49.996;18.980;2023-04-15T06:05:54;10.40;87.10
43647;DHT22;56152;49.996;18.980;2023-04-15T06:10:59;10.90;85.80
43647;DHT22;56152;49.996;18.980;2023-04-15T06:16:03;11.40;84.60
43647;DHT22;56152;49.996;18.980;2023-04-15T06:21:05;11.90;83.40
43647;DHT22;56152;49.996;18.980;2023-04-15T06:26:09;12.40;82.10
43647;DHT22;56152;49.996;18.980;2023-04-15T06:31:13;12.50;81.30
43647;DHT22;56152;49.996;18.980;2023-04-15T06:36:16;12.30;81.20
43647;DHT22;56152;49.996;18.980;2023-04-15T06:41:19;12.30;80.70
43647;DHT22;56152;49.996;18.980;2023-04-15T06:46:22;12.40;80.30
43647;DHT22;56152;49.996;18.980;2023-04-15T06:51:25;12.40;80.30
43647;DHT22;56152;49.996;18.980;2023-04-15T06:56:27;12.70;79.70
43647;DHT22;56152;49.996;18.980;2023-04-15T07:01:32;13.00;78.50
43647;DHT22;56152;49.996;18.980;2023-04-15T07:06:33;13.60;77.30
43647;DHT22;56152;49.996;18.980;2023-04-15T07:11:36;14.10;76.30
43647;DHT22;56152;49.996;18.980;2023-04-15T07:16:39;14.40;75.00
43647;DHT22;56152;49.996;18.980;2023-04-15T07:21:41;14.50;73.80
43647;DHT22;56152;49.996;18.980;2023-04-15T07:26:46;14.40;74.30
43647;DHT22;56152;49.996;18.980;2023-04-15T07:31:51;14.80;73.90
43647;DHT22;56152;49.996;18.980;2023-04-15T07:36:55;15.10;73.10
43647;DHT22;56152;49.996;18.980;2023-04-15T07:41:57;15.50;72.40
43647;DHT22;56152;49.996;18.980;2023-04-15T07:47:01;15.80;70.80
43647;DHT22;56152;49.996;18.980;2023-04-15T07:52:03;16.00;70.10
43647;DHT22;56152;49.996;18.980;2023-04-15T07:57:06;16.20;70.00
43647;DHT22;56152;49.996;18.980;2023-04-15T08:02:10;16.50;69.30
43647;DHT22;56152;49.996;18.980;2023-04-15T08:07:13;16.60;68.10
43647;DHT22;56152;49.996;18.980;2023-04-15T08:12:15;16.20;66.30
43647;DHT22;56152;49.996;18.980;2023-04-15T08:17:24;15.70;65.60
43647;DHT22;56152;49.996;18.980;2023-04-15T08:22:26;15.70;66.60
43647;DHT22;56152;49.996;18.980;2023-04-15T08:27:29;15.80;66.00
43647;DHT22;56152;49.996;18.980;2023-04-15T08:32:32;16.00;65.80
43647;DHT22;56152;49.996;18.980;2023-04-15T08:37:34;16.20;65.20
43647;DHT22;56152;49.996;18.980;2023-04-15T08:42:40;16.50;63.90
43647;DHT22;56152;49.996;18.980;2023-04-15T08:47:44;16.40;63.40
43647;DHT22;56152;49.996;18.980;2023-04-15T08:52:53;16.50;63.80
43647;DHT22;56152;49.996;18.980;2023-04-15T08:57:55;16.80;62.10
43647;DHT22;56152;49.996;18.980;2023-04-15T09:02:59;16.80;62.50
43647;DHT22;56152;49.996;18.980;2023-04-15T09:08:01;17.10;62.10
43647;DHT22;56152;49.996;18.980;2023-04-15T09:13:03;17.60;60.60
43647;DHT22;56152;49.996;18.980;2023-04-15T09:18:06;17.20;60.80
43647;DHT22;56152;49.996;18.980;2023-04-15T09:23:12;16.90;61.40
43647;DHT22;56152;49.996;18.980;2023-04-15T09:28:14;17.00;60.50
43647;DHT22;56152;49.996;18.980;2023-04-15T09:33:29;16.60;60.00
43647;DHT22;56152;49.996;18.980;2023-04-15T09:38:31;16.80;61.10
43647;DHT22;56152;49.996;18.980;2023-04-15T09:43:36;17.60;59.80
43647;DHT22;56152;49.996;18.980;2023-04-15T09:48:42;17.00;59.90
43647;DHT22;56152;49.996;18.980;2023-04-15T09:53:45;16.20;60.70
43647;DHT22;56152;49.996;18.980;2023-04-15T09:58:55;15.60;62.20
43647;DHT22;56152;49.996;18.980;2023-04-15T10:04:01;15.50;63.60
43647;DHT22;56152;49.996;18.980;2023-04-15T10:09:05;15.80;59.80
43647;DHT22;56152;49.996;18.980;2023-04-15T10:14:12;15.80;62.10
43647;DHT22;56152;49.996;18.980;2023-04-15T10:19:20;16.10;62.40
43647;DHT22;56152;49.996;18.980;2023-04-15T10:24:26;16.20;61.20
43647;DHT22;56152;49.996;18.980;2023-04-15T10:29:35;16.20;61.60
43647;DHT22;56152;49.996;18.980;2023-04-15T10:34:40;15.90;62.00
43647;DHT22;56152;49.996;18.980;2023-04-15T10:39:42;15.60;62.30
43647;DHT22;56152;49.996;18.980;2023-04-15T10:44:55;15.80;63.30
43647;DHT22;56152;49.996;18.980;2023-04-15T10:50:00;16.20;61.60
43647;DHT22;56152;49.996;18.980;2023-04-15T10:55:13;16.30;60.90
43647;DHT22;56152;49.996;18.980;2023-04-15T11:00:20;16.30;59.90
43647;DHT22;56152;49.996;18.980;2023-04-15T11:05:51;16.20;61.00
43647;DHT22;56152;49.996;18.980;2023-04-15T11:10:56;16.10;60.40
43647;DHT22;56152;49.996;18.980;2023-04-15T11:15:59;15.90;61.00
43647;DHT22;56152;49.996;18.980;2023-04-15T11:21:05;15.60;61.00
43647;DHT22;56152;49.996;18.980;2023-04-15T11:26:09;15.50;60.70
43647;DHT22;56152;49.996;18.980;2023-04-15T11:31:12;15.70;60.80
43647;DHT22;56152;49.996;18.980;2023-04-15T11:36:34;16.00;60.70
43647;DHT22;56152;49.996;18.980;2023-04-15T11:41:44;17.10;60.20
43647;DHT22;56152;49.996;18.980;2023-04-15T11:46:51;18.00;57.30
43647;DHT22;56152;49.996;18.980;2023-04-15T11:51:54;18.10;57.00
43647;DHT22;56152;49.996;18.980;2023-04-15T11:56:57;18.30;57.40
43647;DHT22;56152;49.996;18.980;2023-04-15T12:02:10;18.10;56.50
43647;DHT22;56152;49.996;18.980;2023-04-15T12:07:16;17.80;56.40
43647;DHT22;56152;49.996;18.980;2023-04-15T12:12:18;17.80;56.90
43647;DHT22;56152;49.996;18.980;2023-04-15T12:17:22;18.10;57.50
43647;DHT22;56152;49.996;18.980;2023-04-15T12:22:27;18.90;56.60
43647;DHT22;56152;49.996;18.980;2023-04-15T12:27:30;19.00;54.80
43647;DHT22;56152;49.996;18.980;2023-04-15T12:32:34;19.00;54.20
43647;DHT22;56152;49.996;18.980;2023-04-15T12:37:39;18.60;54.50
43647;DHT22;56152;49.996;18.980;2023-04-15T12:42:41;18.30;54.60
43647;DHT22;56152;49.996;18.980;2023-04-15T12:47:47;17.90;54.90
43647;DHT22;56152;49.996;18.980;2023-04-15T12:52:51;17.50;55.40
43647;DHT22;56152;49.996;18.980;2023-04-15T12:57:54;17.60;53.90
43647;DHT22;56152;49.996;18.980;2023-04-15T13:02:56;17.10;55.10
43647;DHT22;56152;49.996;18.980;2023-04-15T13:07:59;17.10;54.80
43647;DHT22;56152;49.996;18.980;2023-04-15T13:13:05;16.80;54.90
43647;DHT22;56152;49.996;18.980;2023-04-15T13:18:10;16.50;54.80
43647;DHT22;56152;49.996;18.980;2023-04-15T13:23:15;16.30;55.20
43647;DHT22;56152;49.996;18.980;2023-04-15T13:28:18;15.90;55.20
43647;DHT22;56152;49.996;18.980;2023-04-15T13:33:20;15.70;55.80
43647;DHT22;56152;49.996;18.980;2023-04-15T13:38:26;15.40;56.40
43647;DHT22;56152;49.996;18.980;2023-04-15T13:43:28;15.30;56.70
43647;DHT22;56152;49.996;18.980;2023-04-15T13:48:30;15.20;56.70
43647;DHT22;56152;49.996;18.980;2023-04-15T13:53:37;15.10;56.80
43647;DHT22;56152;49.996;18.980;2023-04-15T13:58:55;15.00;56.80
43647;DHT22;56152;49.996;18.980;2023-04-15T14:04:03;14.90;57.40
43647;DHT22;56152;49.996;18.980;2023-04-15T14:09:10;14.80;57.80
43647;DHT22;56152;49.996;18.980;2023-04-15T14:14:18;14.80;58.10
43647;DHT22;56152;49.996;18.980;2023-04-15T14:19:24;14.60;58.30
43647;DHT22;56152;49.996;18.980;2023-04-15T14:24:30;14.40;58.50
43647;DHT22;56152;49.996;18.980;2023-04-15T14:29:33;14.30;58.90
43647;DHT22;56152;49.996;18.980;2023-04-15T14:34:35;14.30;59.20
43647;DHT22;56152;49.996;18.980;2023-04-15T14:39:40;14.30;59.70
43647;DHT22;56152;49.996;18.980;2023-04-15T14:44:43;14.20;59.90
43647;DHT22;56152;49.996;18.980;2023-04-15T14:49:48;14.20;60.80
43647;DHT22;56152;49.996;18.980;2023-04-15T14:54:53;14.10;61.50
43647;DHT22;56152;49.996;18.980;2023-04-15T15:00:00;13.90;62.00
43647;DHT22;56152;49.996;18.980;2023-04-15T15:05:08;13.60;62.60
43647;DHT22;56152;49.996;18.980;2023-04-15T15:10:14;13.40;63.60
43647;DHT22;56152;49.996;18.980;2023-04-15T15:15:17;13.30;64.70
43647;DHT22;56152;49.996;18.980;2023-04-15T15:20:20;13.10;65.20
43647;DHT22;56152;49.996;18.980;2023-04-15T15:25:25;13.20;66.00
43647;DHT22;56152;49.996;18.980;2023-04-15T15:30:30;13.40;65.90
43647;DHT22;56152;49.996;18.980;2023-04-15T15:35:32;13.20;66.00
43647;DHT22;56152;49.996;18.980;2023-04-15T15:40:35;13.00;66.40
43647;DHT22;56152;49.996;18.980;2023-04-15T15:45:37;12.80;67.10
43647;DHT22;56152;49.996;18.980;2023-04-15T15:50:40;12.50;67.50
43647;DHT22;56152;49.996;18.980;2023-04-15T15:55:45;12.20;68.10
43647;DHT22;56152;49.996;18.980;2023-04-15T16:00:48;12.00;69.20
43647;DHT22;56152;49.996;18.980;2023-04-15T16:05:50;11.80;70.00
43647;DHT22;56152;49.996;18.980;2023-04-15T16:10:55;11.40;71.10
43647;DHT22;56152;49.996;18.980;2023-04-15T16:15:57;11.00;72.20
43647;DHT22;56152;49.996;18.980;2023-04-15T16:20:59;10.70;73.50
43647;DHT22;56152;49.996;18.980;2023-04-15T16:26:04;10.30;75.20
43647;DHT22;56152;49.996;18.980;2023-04-15T16:31:07;10.10;76.40
43647;DHT22;56152;49.996;18.980;2023-04-15T16:36:09;10.00;77.00
43647;DHT22;56152;49.996;18.980;2023-04-15T16:41:12;9.90;77.50
43647;DHT22;56152;49.996;18.980;2023-04-15T16:46:18;10.00;78.20
43647;DHT22;56152;49.996;18.980;2023-04-15T16:51:22;9.90;78.60
43647;DHT22;56152;49.996;18.980;2023-04-15T16:56:27;9.90;79.00
43647;DHT22;56152;49.996;18.980;2023-04-15T17:01:29;10.00;79.60
43647;DHT22;56152;49.996;18.980;2023-04-15T17:06:33;9.90;80.00
43647;DHT22;56152;49.996;18.980;2023-04-15T17:11:38;9.90;80.60
43647;DHT22;56152;49.996;18.980;2023-04-15T17:16:42;9.70;81.10
43647;DHT22;56152;49.996;18.980;2023-04-15T17:21:44;9.70;81.40
43647;DHT22;56152;49.996;18.980;2023-04-15T17:26:55;9.60;82.20
43647;DHT22;56152;49.996;18.980;2023-04-15T17:31:57;9.60;82.50
43647;DHT22;56152;49.996;18.980;2023-04-15T17:37:01;9.60;82.90
43647;DHT22;56152;49.996;18.980;2023-04-15T17:42:04;9.50;83.30
43647;DHT22;56152;49.996;18.980;2023-04-15T17:47:21;9.50;83.60
43647;DHT22;56152;49.996;18.980;2023-04-15T17:52:30;9.50;84.00
43647;DHT22;56152;49.996;18.980;2023-04-15T17:57:35;9.50;84.00
43647;DHT22;56152;49.996;18.980;2023-04-15T18:02:40;9.50;84.30
43647;DHT22;56152;49.996;18.980;2023-04-15T18:07:59;9.50;84.50
43647;DHT22;56152;49.996;18.980;2023-04-15T18:13:37;9.50;84.90
43647;DHT22;56152;49.996;18.980;2023-04-15T18:18:40;9.40;85.90
43647;DHT22;56152;49.996;18.980;2023-04-15T18:23:48;9.40;85.50
43647;DHT22;56152;49.996;18.980;2023-04-15T18:29:01;9.40;86.10
43647;DHT22;56152;49.996;18.980;2023-04-15T18:34:06;9.30;86.60
43647;DHT22;56152;49.996;18.980;2023-04-15T18:39:09;9.30;86.90
43647;DHT22;56152;49.996;18.980;2023-04-15T18:44:13;9.20;87.10
43647;DHT22;56152;49.996;18.980;2023-04-15T18:49:16;9.30;87.40
43647;DHT22;56152;49.996;18.980;2023-04-15T18:54:18;9.10;87.40
43647;DHT22;56152;49.996;18.980;2023-04-15T18:59:22;9.10;87.50
43647;DHT22;56152;49.996;18.980;2023-04-15T19:04:24;8.90;87.80
43647;DHT22;56152;49.996;18.980;2023-04-15T19:09:29;8.80;88.30
43647;DHT22;56152;49.996;18.980;2023-04-15T19:14:33;8.70;88.50
43647;DHT22;56152;49.996;18.980;2023-04-15T19:19:35;8.60;88.70
43647;DHT22;56152;49.996;18.980;2023-04-15T19:24:47;8.50;88.90
43647;DHT22;56152;49.996;18.980;2023-04-15T19:29:50;8.40;89.10
43647;DHT22;56152;49.996;18.980;2023-04-15T19:34:58;8.20;89.20
43647;DHT22;56152;49.996;18.980;2023-04-15T19:40:07;8.10;89.40
43647;DHT22;56152;49.996;18.980;2023-04-15T19:45:14;8.00;89.70
43647;DHT22;56152;49.996;18.980;2023-04-15T19:50:18;7.90;90.00
43647;DHT22;56152;49.996;18.980;2023-04-15T19:55:25;7.80;90.10
43647;DHT22;56152;49.996;18.980;2023-04-15T20:00:32;7.70;90.10
43647;DHT22;56152;49.996;18.980;2023-04-15T20:05:36;7.70;90.20
43647;DHT22;56152;49.996;18.980;2023-04-15T20:10:41;7.50;90.20
43647;DHT22;56152;49.996;18.980;2023-04-15T20:15:50;7.40;90.30
43647;DHT22;56152;49.996;18.980;2023-04-15T20:20:52;7.30;90.40
43647;DHT22;56152;49.996;18.980;2023-04-15T20:26:03;7.10;90.40
43647;DHT22;56152;49.996;18.980;2023-04-15T20:31:16;6.90;90.60
43647;DHT22;56152;49.996;18.980;2023-04-15T20:36:19;6.80;90.90
43647;DHT22;56152;49.996;18.980;2023-04-15T20:41:26;6.70;91.00
43647;DHT22;56152;49.996;18.980;2023-04-15T20:46:33;6.70;91.00
43647;DHT22;56152;49.996;18.980;2023-04-15T20:51:36;6.60;91.10
43647;DHT22;56152;49.996;18.980;2023-04-15T20:56:38;6.60;91.00
43647;DHT22;56152;49.996;18.980;2023-04-15T21:01:44;6.50;91.00
43647;DHT22;56152;49.996;18.980;2023-04-15T21:06:46;6.50;91.10
43647;DHT22;56152;49.996;18.980;2023-04-15T21:11:50;6.40;91.20
43647;DHT22;56152;49.996;18.980;2023-04-15T21:16:53;6.30;91.20
43647;DHT22;56152;49.996;18.980;2023-04-15T21:21:55;6.20;91.30
43647;DHT22;56152;49.996;18.980;2023-04-15T21:26:57;6.20;91.60
43647;DHT22;56152;49.996;18.980;2023-04-15T21:32:23;6.20;91.40
43647;DHT22;56152;49.996;18.980;2023-04-15T21:37:26;6.20;91.40
43647;DHT22;56152;49.996;18.980;2023-04-15T21:42:30;6.20;91.40
43647;DHT22;56152;49.996;18.980;2023-04-15T21:47:37;6.20;91.50
43647;DHT22;56152;49.996;18.980;2023-04-15T21:52:39;6.10;91.40
43647;DHT22;56152;49.996;18.980;2023-04-15T21:57:54;5.90;91.60
43647;DHT22;56152;49.996;18.980;2023-04-15T22:03:12;5.80;91.70
43647;DHT22;56152;49.996;18.980;2023-04-15T22:08:16;5.70;91.80
43647;DHT22;56152;49.996;18.980;2023-04-15T22:13:18;5.70;91.90
43647;DHT22;56152;49.996;18.980;2023-04-15T22:18:23;5.70;91.90
43647;DHT22;56152;49.996;18.980;2023-04-15T22:23:29;5.80;91.90
43647;DHT22;56152;49.996;18.980;2023-04-15T22:28:33;5.80;91.90
43647;DHT22;56152;49.996;18.980;2023-04-15T22:33:39;5.80;91.90
43647;DHT22;56152;49.996;18.980;2023-04-15T22:38:41;5.90;92.00
43647;DHT22;56152;49.996;18.980;2023-04-15T22:43:44;6.00;92.00
43647;DHT22;56152;49.996;18.980;2023-04-15T22:48:51;5.90;92.00
43647;DHT22;56152;49.996;18.980;2023-04-15T22:53:54;5.90;92.00
43647;DHT22;56152;49.996;18.980;2023-04-15T22:58:57;5.80;92.10
43647;DHT22;56152;49.996;18.980;2023-04-15T23:04:02;5.80;92.10
43647;DHT22;56152;49.996;18.980;2023-04-15T23:09:04;5.80;92.20
43647;DHT22;56152;49.996;18.980;2023-04-15T23:14:06;5.70;92.20
43647;DHT22;56152;49.996;18.980;2023-04-15T23:19:24;5.60;92.30
43647;DHT22;56152;49.996;18.980;2023-04-15T23:24:27;5.50;92.30
43647;DHT22;56152;49.996;18.980;2023-04-15T23:29:33;5.30;92.20
43647;DHT22;56152;49.996;18.980;2023-04-15T23:34:38;5.10;92.50
43647;DHT22;56152;49.996;18.980;2023-04-15T23:39:42;5.00;92.70
43647;DHT22;56152;49.996;18.980;2023-04-15T23:44:44;4.90;92.70
43647;DHT22;56152;49.996;18.980;2023-04-15T23:49:51;4.70;92.70
43647;DHT22;56152;49.996;18.980;2023-04-15T23:54:54;4.70;92.90
43647;DHT22;56152;49.996;18.980;2023-04-15T23:59:57;4.70;92.90
